Time;durP1;ratioP1;P1;durP2;ratioP2;P2;SDS_P1;SDS_P2;PMS_P1;PMS_P2;Temp;Humidity;BMP_temperature;BMP_pressure;BME280_temperature;BME280_humidity;BME280_pressure;Samples;Min_cycle;Max_cycle;Signal;HPM_P1;HPM_P2
2023/03/16 00:00:41;;;;;;;7.60;3.60;;;3.80;98.60;;;;;;5037318;28;20119;-72
2023/03/16 00:03:08;;;;;;;7.00;3.73;;;3.80;98.50;;;;;;5079813;28;20044;-73
2023/03/16 00:05:33;;;;;;;7.57;3.58;;;3.80;98.50;;;;;;5015547;28;20051;-72
2023/03/16 00:07:59;;;;;;;7.40;4.33;;;3.80;98.50;;;;;;5064646;28;20047;-73
2023/03/16 00:10:26;;;;;;;8.33;3.97;;;3.80;98.60;;;;;;5059377;28;20047;-72
2023/03/16 00:12:53;;;;;;;8.53;4.17;;;3.80;98.60;;;;;;5086050;28;20051;-72
2023/03/16 00:15:19;;;;;;;6.68;3.70;;;3.90;98.60;;;;;;5062538;28;20055;-74
2023/03/16 00:17:47;;;;;;;7.53;3.70;;;3.80;98.70;;;;;;5056059;28;20058;-72
2023/03/16 00:20:17;;;;;;;7.57;4.10;;;3.90;98.60;;;;;;5069145;28;20093;-72
2023/03/16 00:22:43;;;;;;;8.85;4.57;;;3.90;98.50;;;;;;5057325;28;20556;-73
2023/03/16 00:25:13;;;;;;;7.88;3.40;;;3.90;98.60;;;;;;5066166;28;20044;-73
2023/03/16 00:27:40;;;;;;;6.45;3.83;;;3.90;98.60;;;;;;5069852;28;20597;-73
2023/03/16 00:30:06;;;;;;;9.23;3.77;;;3.90;98.70;;;;;;5072391;28;20047;-74
2023/03/16 00:36:13;;;;;;;9.63;4.10;;;3.90;98.80;;;;;;5086081;28;20386;-74
2023/03/16 00:38:44;;;;;;;9.85;3.50;;;3.80;99.10;;;;;;5037955;28;20044;-73
2023/03/16 00:41:13;;;;;;;8.95;4.30;;;3.80;99.00;;;;;;5043779;28;20120;-73
2023/03/16 00:43:40;;;;;;;7.17;3.73;;;3.80;99.10;;;;;;5043891;28;20055;-73
2023/03/16 00:46:18;;;;;;;8.85;4.25;;;3.80;99.00;;;;;;5045451;28;20043;-73
2023/03/16 00:48:45;;;;;;;7.88;4.40;;;3.90;98.90;;;;;;5063028;28;20043;-73
2023/03/16 00:51:14;;;;;;;6.20;3.60;;;3.90;99.10;;;;;;5067652;28;20036;-74
2023/03/16 00:53:42;;;;;;;8.48;4.05;;;3.80;99.20;;;;;;5071803;28;20047;-73
2023/03/16 00:56:09;;;;;;;9.18;4.32;;;3.80;99.30;;;;;;5096522;27;20135;-73
2023/03/16 00:58:39;;;;;;;9.63;4.77;;;3.80;99.50;;;;;;5064448;28;20045;-74
2023/03/16 01:01:07;;;;;;;7.68;4.30;;;3.80;99.70;;;;;;5063790;28;20074;-73
2023/03/16 01:03:34;;;;;;;6.53;3.70;;;3.80;99.90;;;;;;5052784;28;20061;-73
2023/03/16 01:06:11;;;;;;;8.02;4.20;;;3.80;99.90;;;;;;5041866;28;20052;-73
2023/03/16 01:08:38;;;;;;;8.65;4.88;;;3.80;99.90;;;;;;5064861;28;20094;-73
2023/03/16 01:11:06;;;;;;;10.10;4.60;;;3.70;99.90;;;;;;5065165;28;20059;-73
2023/03/16 01:13:34;;;;;;;7.20;4.43;;;3.80;99.90;;;;;;5026048;28;20127;-73
2023/03/16 01:15:59;;;;;;;9.27;4.68;;;3.70;99.90;;;;;;5041119;28;20039;-73
2023/03/16 01:18:28;;;;;;;9.90;4.43;;;3.70;99.90;;;;;;5062849;28;20131;-73
2023/03/16 01:20:53;;;;;;;10.60;4.80;;;3.80;99.90;;;;;;5084781;28;20593;-73
2023/03/16 01:23:20;;;;;;;8.93;5.32;;;3.80;99.90;;;;;;5067101;28;20497;-73
2023/03/16 01:25:51;;;;;;;9.67;5.13;;;3.70;99.90;;;;;;5088155;28;20073;-73
2023/03/16 01:28:23;;;;;;;9.10;4.95;;;3.70;99.90;;;;;;5034511;28;20039;-73
2023/03/16 01:30:56;;;;;;;8.80;5.23;;;3.70;99.90;;;;;;5084294;28;20048;-73
2023/03/16 01:33:24;;;;;;;9.63;5.05;;;3.70;99.90;;;;;;5070068;28;20043;-73
2023/03/16 01:36:00;;;;;;;9.27;4.63;;;3.60;99.90;;;;;;5070596;28;20045;-73
2023/03/16 01:38:26;;;;;;;10.27;5.83;;;3.60;99.90;;;;;;5065364;28;20044;-74
2023/03/16 01:40:53;;;;;;;8.37;5.27;;;3.60;99.90;;;;;;5063658;28;20456;-72
2023/03/16 01:43:25;;;;;;;9.70;5.97;;;3.50;99.90;;;;;;5068169;28;20059;-73
2023/03/16 01:46:06;;;;;;;10.47;5.90;;;3.50;99.90;;;;;;5042176;28;20044;-73
2023/03/16 01:48:43;;;;;;;11.15;6.30;;;3.50;99.90;;;;;;5070084;28;20125;-73
2023/03/16 01:51:28;;;;;;;9.83;6.07;;;3.50;99.90;;;;;;5064259;28;20055;-73
2023/03/16 01:54:00;;;;;;;9.43;5.53;;;3.40;99.90;;;;;;5064424;28;20040;-74
2023/03/16 01:56:33;;;;;;;10.37;6.27;;;3.40;99.90;;;;;;5066183;28;20060;-73
2023/03/16 01:59:01;;;;;;;12.33;6.07;;;3.40;99.90;;;;;;5071342;28;20131;-74
2023/03/16 02:01:27;;;;;;;10.73;5.97;;;3.40;99.90;;;;;;5094644;28;20028;-73
2023/03/16 02:04:06;;;;;;;9.20;5.65;;;3.40;99.90;;;;;;5035879;28;20387;-73
2023/03/16 02:06:34;;;;;;;11.87;6.47;;;3.40;99.90;;;;;;5091864;28;20048;-73
2023/03/16 02:09:01;;;;;;;8.83;5.97;;;3.40;99.90;;;;;;5098923;28;20051;-72
2023/03/16 02:11:27;;;;;;;12.70;6.60;;;3.40;99.90;;;;;;5051822;28;20055;-71
2023/03/16 02:13:55;;;;;;;10.90;6.23;;;3.40;99.90;;;;;;5049673;28;20044;-72
2023/03/16 02:16:21;;;;;;;9.40;6.00;;;3.40;99.90;;;;;;5052504;28;20168;-71
2023/03/16 02:18:48;;;;;;;10.97;6.10;;;3.40;99.90;;;;;;5067192;28;20056;-71
2023/03/16 02:21:20;;;;;;;11.80;5.87;;;3.50;99.90;;;;;;5071296;28;21558;-71
2023/03/16 02:23:49;;;;;;;9.80;6.57;;;3.50;99.90;;;;;;5064898;28;20056;-71
2023/03/16 02:26:28;;;;;;;9.73;6.05;;;3.50;99.90;;;;;;5052797;28;20450;-73
2023/03/16 02:29:19;;;;;;;12.03;5.97;;;3.50;99.90;;;;;;5064117;28;20044;-73
2023/03/16 02:31:46;;;;;;;10.57;5.97;;;3.50;99.90;;;;;;5098443;27;20047;-73
2023/03/16 02:34:14;;;;;;;7.60;5.40;;;3.50;99.90;;;;;;5070740;28;20047;-73
2023/03/16 02:36:45;;;;;;;10.05;5.90;;;3.50;99.90;;;;;;5051608;28;20051;-73
2023/03/16 02:39:11;;;;;;;10.13;6.10;;;3.50;99.90;;;;;;5082433;28;20078;-72
2023/03/16 02:41:38;;;;;;;9.20;5.88;;;3.60;99.90;;;;;;5060894;28;20040;-73
2023/03/16 02:44:23;;;;;;;9.18;5.70;;;3.60;99.90;;;;;;5068693;28;20048;-73
2023/03/16 02:46:53;;;;;;;8.85;6.03;;;3.60;99.90;;;;;;5071552;28;20050;-73
2023/03/16 02:49:26;;;;;;;9.20;5.78;;;3.60;99.90;;;;;;5066820;28;20133;-73
2023/03/16 02:51:52;;;;;;;10.07;5.55;;;3.60;99.90;;;;;;5107809;27;20062;-73
2023/03/16 02:54:18;;;;;;;8.43;5.63;;;3.70;99.90;;;;;;5055828;28;20044;-73
2023/03/16 02:56:47;;;;;;;8.80;5.47;;;3.70;99.90;;;;;;5052958;28;20036;-73
2023/03/16 02:59:13;;;;;;;8.57;5.38;;;3.70;99.90;;;;;;5026533;28;20040;-73
2023/03/16 03:01:39;;;;;;;10.68;5.43;;;3.70;99.90;;;;;;5051871;28;20603;-73
2023/03/16 03:04:05;;;;;;;7.00;5.50;;;3.80;99.90;;;;;;5045288;28;20067;-73
2023/03/16 03:06:31;;;;;;;9.45;5.90;;;3.70;99.90;;;;;;5024947;28;20368;-73
2023/03/16 03:08:58;;;;;;;9.97;5.57;;;3.80;99.90;;;;;;5046637;28;20048;-73
2023/03/16 03:11:23;;;;;;;8.32;5.18;;;3.80;99.90;;;;;;5048001;28;20051;-72
2023/03/16 03:13:49;;;;;;;9.07;5.90;;;3.80;99.90;;;;;;5051583;28;20043;-73
2023/03/16 03:16:15;;;;;;;10.15;5.65;;;3.80;99.90;;;;;;5044823;28;20040;-74
2023/03/16 03:18:41;;;;;;;10.50;5.82;;;3.90;99.90;;;;;;5061470;28;20083;-73
2023/03/16 03:21:07;;;;;;;6.93;5.05;;;4.00;99.90;;;;;;5040573;28;20044;-73
2023/03/16 03:23:34;;;;;;;9.63;5.47;;;3.90;99.90;;;;;;5047014;28;20043;-73
2023/03/16 03:26:01;;;;;;;10.60;5.70;;;3.90;99.90;;;;;;5047633;28;20530;-73
2023/03/16 03:28:27;;;;;;;7.90;5.53;;;4.00;99.90;;;;;;5064791;28;20045;-73
2023/03/16 03:30:53;;;;;;;8.40;5.43;;;4.00;99.90;;;;;;5029683;28;20036;-73
2023/03/16 03:33:21;;;;;;;8.83;5.67;;;4.00;99.90;;;;;;5045589;28;21606;-73
2023/03/16 03:35:52;;;;;;;6.97;5.17;;;4.00;99.90;;;;;;5049378;28;20044;-73
2023/03/16 03:38:18;;;;;;;10.23;5.30;;;4.00;99.90;;;;;;5045253;28;20434;-73
2023/03/16 03:40:44;;;;;;;7.20;5.00;;;4.00;99.90;;;;;;5047330;28;20057;-73
2023/03/16 03:43:09;;;;;;;9.82;5.05;;;4.00;99.90;;;;;;5030126;28;20113;-73
2023/03/16 03:45:35;;;;;;;9.52;5.35;;;4.00;99.90;;;;;;5045281;28;20457;-73
2023/03/16 03:48:01;;;;;;;7.65;4.72;;;4.10;99.90;;;;;;5063431;28;20083;-74
2023/03/16 03:50:27;;;;;;;7.95;5.40;;;4.10;99.90;;;;;;5077817;28;20214;-73
2023/03/16 03:52:53;;;;;;;8.93;4.68;;;4.10;99.90;;;;;;5033950;28;20147;-73
2023/03/16 03:55:19;;;;;;;7.68;5.28;;;4.10;99.90;;;;;;5044513;28;20056;-73
2023/03/16 03:57:45;;;;;;;9.25;5.65;;;4.10;99.90;;;;;;5021324;28;20068;-73
2023/03/16 04:00:12;;;;;;;8.95;5.00;;;4.10;99.90;;;;;;5066605;28;20064;-74
2023/03/16 04:02:38;;;;;;;9.02;4.85;;;4.10;99.90;;;;;;5052670;28;20044;-73
2023/03/16 04:05:05;;;;;;;8.77;4.75;;;4.20;99.90;;;;;;5045454;28;20040;-73
2023/03/16 04:07:31;;;;;;;9.75;5.55;;;4.20;99.90;;;;;;5047488;28;20545;-73
2023/03/16 04:09:57;;;;;;;7.20;4.87;;;4.20;99.90;;;;;;5043346;28;20048;-73
2023/03/16 04:12:23;;;;;;;9.07;5.10;;;4.20;99.90;;;;;;5035889;28;20040;-73
2023/03/16 04:14:50;;;;;;;9.82;5.10;;;4.20;99.90;;;;;;5063780;28;20050;-73
2023/03/16 04:17:16;;;;;;;6.97;4.78;;;4.20;99.90;;;;;;5027446;28;20053;-73
2023/03/16 04:19:42;;;;;;;8.60;5.20;;;4.30;99.90;;;;;;5058692;28;20048;-72
2023/03/16 04:22:08;;;;;;;8.27;5.03;;;4.20;99.90;;;;;;5063438;28;20050;-73
2023/03/16 04:24:34;;;;;;;7.57;4.95;;;4.20;99.90;;;;;;5061464;28;20158;-72
2023/03/16 04:27:03;;;;;;;8.13;5.15;;;4.30;99.90;;;;;;5036483;28;20169;-73
2023/03/16 04:29:29;;;;;;;8.38;5.07;;;4.20;99.90;;;;;;5082463;28;20509;-73
2023/03/16 04:31:55;;;;;;;7.72;5.20;;;4.20;99.90;;;;;;5030030;28;20051;-73
2023/03/16 04:34:24;;;;;;;8.88;5.55;;;4.20;99.90;;;;;;5063990;28;20040;-73
2023/03/16 04:36:51;;;;;;;10.07;5.75;;;4.20;99.90;;;;;;5044258;28;20052;-73
2023/03/16 04:39:20;;;;;;;8.27;5.07;;;4.30;99.90;;;;;;5047911;28;20060;-73
2023/03/16 04:41:46;;;;;;;8.88;5.30;;;4.30;99.90;;;;;;5051673;28;20113;-72
2023/03/16 04:44:12;;;;;;;9.57;5.47;;;4.20;99.90;;;;;;5059995;28;20036;-73
2023/03/16 04:46:38;;;;;;;7.22;4.97;;;4.30;99.90;;;;;;5045900;28;20040;-73
2023/03/16 04:49:07;;;;;;;9.30;5.27;;;4.30;99.90;;;;;;5061483;28;20083;-74
2023/03/16 04:51:34;;;;;;;9.98;5.70;;;4.20;99.90;;;;;;5029738;28;20135;-74
2023/03/16 04:53:59;;;;;;;7.82;5.40;;;4.30;99.90;;;;;;5038211;28;20105;-73
2023/03/16 04:56:25;;;;;;;8.00;5.80;;;4.30;99.90;;;;;;5074871;28;20060;-73
2023/03/16 04:58:51;;;;;;;7.45;5.40;;;4.30;99.90;;;;;;5058228;28;20044;-73
2023/03/16 05:01:20;;;;;;;8.52;5.50;;;4.30;99.90;;;;;;5061375;28;20040;-72
2023/03/16 05:03:46;;;;;;;8.60;5.60;;;4.30;99.90;;;;;;5057075;28;20044;-74
2023/03/16 05:06:12;;;;;;;9.65;5.50;;;4.30;99.90;;;;;;5043982;28;20048;-73
2023/03/16 05:08:38;;;;;;;8.88;5.32;;;4.30;99.90;;;;;;5045658;28;20032;-73
2023/03/16 05:11:04;;;;;;;8.27;5.78;;;4.30;99.90;;;;;;5055241;28;20140;-73
2023/03/16 05:13:29;;;;;;;9.65;5.75;;;4.30;99.90;;;;;;5049086;28;20127;-73
2023/03/16 05:15:55;;;;;;;9.52;5.82;;;4.30;99.90;;;;;;5042275;28;20048;-73
2023/03/16 05:18:21;;;;;;;8.93;6.47;;;4.30;99.90;;;;;;5068015;28;20040;-74
2023/03/16 05:20:55;;;;;;;8.13;5.78;;;4.30;99.90;;;;;;5063068;28;20495;-73
2023/03/16 05:23:20;;;;;;;9.30;5.57;;;4.30;99.90;;;;;;5065690;28;20100;-73
2023/03/16 05:25:47;;;;;;;7.97;6.13;;;4.30;99.90;;;;;;5041640;28;20040;-73
2023/03/16 05:28:13;;;;;;;7.47;5.72;;;4.30;99.90;;;;;;5063399;28;20031;-74
2023/03/16 05:30:41;;;;;;;8.68;5.85;;;4.40;99.90;;;;;;5068777;28;20362;-73
2023/03/16 05:33:07;;;;;;;9.40;6.03;;;4.40;99.90;;;;;;5035755;28;20130;-73
2023/03/16 05:35:33;;;;;;;7.25;5.68;;;4.40;99.90;;;;;;5061637;28;20071;-73
2023/03/16 05:37:59;;;;;;;6.70;5.40;;;4.40;99.90;;;;;;5062502;28;20040;-73
2023/03/16 05:40:26;;;;;;;9.02;5.80;;;4.40;99.90;;;;;;5031103;28;20033;-74
2023/03/16 05:42:56;;;;;;;8.43;5.60;;;4.40;99.90;;;;;;5051950;28;20662;-73
2023/03/16 05:45:22;;;;;;;8.52;6.05;;;4.40;99.90;;;;;;5064819;28;20047;-72
2023/03/16 05:47:48;;;;;;;10.23;5.90;;;4.40;99.90;;;;;;5047028;28;20048;-71
2023/03/16 05:50:15;;;;;;;8.43;6.07;;;4.40;99.90;;;;;;5044771;28;20071;-71
2023/03/16 05:52:43;;;;;;;9.70;5.95;;;4.40;99.90;;;;;;5048081;28;20083;-71
2023/03/16 05:55:10;;;;;;;7.25;5.65;;;4.40;99.90;;;;;;5040557;28;20048;-71
2023/03/16 05:57:36;;;;;;;7.80;6.25;;;4.40;99.90;;;;;;5043825;28;20041;-71
2023/03/16 06:00:13;;;;;;;8.55;5.18;;;4.40;99.90;;;;;;5059283;28;20376;-71
2023/03/16 06:02:39;;;;;;;8.83;6.30;;;4.50;99.90;;;;;;5047313;28;20036;-71
2023/03/16 06:05:06;;;;;;;7.80;6.20;;;4.50;99.90;;;;;;5024040;28;20177;-71
2023/03/16 06:07:32;;;;;;;7.90;5.85;;;4.50;99.90;;;;;;5064663;28;20726;-71
2023/03/16 06:09:58;;;;;;;8.63;5.70;;;4.40;99.90;;;;;;5044532;28;20101;-71
2023/03/16 06:12:24;;;;;;;9.90;5.97;;;4.40;99.90;;;;;;5021471;28;20604;-73
2023/03/16 06:14:50;;;;;;;8.15;5.97;;;4.40;99.90;;;;;;5031248;28;20040;-73
2023/03/16 06:17:16;;;;;;;8.65;6.07;;;4.40;99.90;;;;;;5051063;28;20075;-73
2023/03/16 06:19:41;;;;;;;8.77;5.88;;;4.40;99.90;;;;;;5043820;28;20045;-73
2023/03/16 06:22:07;;;;;;;8.32;6.30;;;4.40;99.90;;;;;;5062869;28;20045;-73
2023/03/16 06:24:33;;;;;;;8.45;5.82;;;4.40;99.90;;;;;;5016090;28;20053;-73
2023/03/16 06:27:15;;;;;;;8.77;6.28;;;4.50;99.90;;;;;;5046311;28;20120;-72
2023/03/16 06:29:40;;;;;;;8.23;6.03;;;4.40;99.90;;;;;;5041899;28;20110;-73
2023/03/16 06:32:06;;;;;;;7.28;5.18;;;4.40;99.90;;;;;;5029108;28;20445;-73
2023/03/16 06:34:33;;;;;;;8.20;5.50;;;4.40;99.90;;;;;;5045921;28;20075;-73
2023/03/16 06:36:58;;;;;;;8.75;5.78;;;4.40;99.90;;;;;;5073871;28;20040;-73
2023/03/16 06:39:25;;;;;;;11.07;6.32;;;4.60;99.90;;;;;;5034773;28;20137;-73
2023/03/16 06:41:50;;;;;;;8.23;5.95;;;4.50;99.90;;;;;;5045214;28;20464;-73
2023/03/16 06:44:16;;;;;;;8.77;6.15;;;4.60;99.90;;;;;;5027721;28;20051;-73
2023/03/16 06:46:45;;;;;;;11.55;5.90;;;4.60;99.90;;;;;;5010242;28;20033;-74
2023/03/16 06:49:11;;;;;;;7.43;5.57;;;4.60;99.90;;;;;;5096082;27;20094;-73
2023/03/16 06:51:40;;;;;;;8.75;5.95;;;4.70;99.90;;;;;;5029904;28;20041;-74
2023/03/16 06:54:07;;;;;;;8.55;6.25;;;4.70;99.90;;;;;;5052456;28;20405;-73
2023/03/16 06:56:33;;;;;;;11.50;6.10;;;4.60;99.90;;;;;;5065593;28;20490;-73
2023/03/16 06:58:58;;;;;;;7.40;5.38;;;4.70;99.90;;;;;;5052941;28;20050;-73
2023/03/16 07:01:28;;;;;;;9.27;5.82;;;4.70;99.90;;;;;;5048614;28;20036;-74
2023/03/16 07:03:54;;;;;;;8.95;5.93;;;4.70;99.90;;;;;;5078121;28;20251;-74
2023/03/16 07:06:20;;;;;;;7.88;5.25;;;4.70;99.90;;;;;;5062512;28;20316;-74
2023/03/16 07:08:46;;;;;;;7.38;5.15;;;4.80;99.90;;;;;;5043170;28;20043;-73
2023/03/16 07:11:13;;;;;;;7.50;5.25;;;4.80;99.90;;;;;;5068018;28;20045;-74
2023/03/16 07:13:40;;;;;;;6.95;5.75;;;4.80;99.90;;;;;;5068077;28;20524;-74
2023/03/16 07:16:07;;;;;;;7.93;5.63;;;4.80;99.90;;;;;;5044429;28;20398;-75
2023/03/16 07:18:33;;;;;;;8.05;6.13;;;4.80;99.90;;;;;;5032309;28;20502;-74
2023/03/16 07:20:59;;;;;;;8.20;5.60;;;4.80;99.90;;;;;;5032671;28;20047;-73
2023/03/16 07:23:27;;;;;;;8.55;5.40;;;4.90;99.90;;;;;;5062695;28;20051;-74
2023/03/16 07:25:53;;;;;;;7.93;5.88;;;4.90;99.90;;;;;;5042667;28;20106;-74
2023/03/16 07:28:19;;;;;;;7.50;5.70;;;4.90;99.90;;;;;;5020467;28;20935;-73
2023/03/16 07:30:46;;;;;;;9.15;5.32;;;4.90;99.90;;;;;;5051194;28;20052;-74
2023/03/16 07:33:15;;;;;;;7.10;5.35;;;5.00;99.90;;;;;;5056724;28;20058;-74
2023/03/16 07:35:40;;;;;;;6.93;5.40;;;5.00;99.90;;;;;;5067836;28;20586;-75
2023/03/16 07:38:09;;;;;;;9.40;5.70;;;5.00;99.90;;;;;;5029827;28;20059;-73
2023/03/16 07:40:35;;;;;;;7.35;5.30;;;5.00;99.90;;;;;;5090749;28;20043;-73
2023/03/16 07:43:00;;;;;;;8.75;5.40;;;5.00;99.90;;;;;;5048763;28;20123;-73
2023/03/16 07:45:26;;;;;;;8.48;5.60;;;5.10;99.90;;;;;;5071193;28;20044;-74
2023/03/16 07:47:55;;;;;;;6.53;5.32;;;5.10;99.90;;;;;;5058904;28;20044;-73
2023/03/16 07:50:21;;;;;;;6.65;5.30;;;5.10;99.90;;;;;;5042813;28;20544;-74
2023/03/16 07:52:47;;;;;;;7.22;5.63;;;5.20;99.90;;;;;;5045887;28;20056;-75
2023/03/16 07:55:13;;;;;;;9.23;5.65;;;5.20;99.90;;;;;;5041197;28;20095;-72
2023/03/16 07:57:41;;;;;;;8.68;6.03;;;5.20;99.90;;;;;;5060814;28;20090;-72
2023/03/16 08:00:08;;;;;;;8.32;5.45;;;5.20;99.90;;;;;;5038903;28;20080;-73
2023/03/16 08:02:34;;;;;;;8.55;5.80;;;5.30;99.90;;;;;;5055704;28;20119;-73
2023/03/16 08:04:59;;;;;;;7.78;5.82;;;5.30;99.90;;;;;;5034101;28;20681;-73
2023/03/16 08:07:26;;;;;;;7.30;5.38;;;5.30;99.90;;;;;;5030956;28;20063;-73
2023/03/16 08:09:52;;;;;;;7.45;5.88;;;5.30;99.90;;;;;;5050034;28;20136;-73
2023/03/16 08:12:18;;;;;;;7.97;5.60;;;5.40;99.90;;;;;;5012795;28;20153;-72
2023/03/16 08:14:45;;;;;;;8.20;6.40;;;5.40;99.90;;;;;;5074372;28;20127;-73
2023/03/16 08:17:11;;;;;;;9.40;6.15;;;5.40;99.90;;;;;;5073962;28;20494;-73
2023/03/16 08:19:37;;;;;;;7.47;6.47;;;5.40;99.90;;;;;;5046822;28;20516;-74
2023/03/16 08:22:04;;;;;;;7.60;5.57;;;5.50;99.90;;;;;;5037634;28;20367;-73
2023/03/16 08:24:31;;;;;;;8.98;6.07;;;5.50;99.90;;;;;;5045350;28;20045;-73
2023/03/16 08:26:57;;;;;;;7.55;5.72;;;5.50;99.90;;;;;;5039419;28;20474;-73
2023/03/16 08:29:25;;;;;;;9.02;6.55;;;5.50;99.90;;;;;;5056661;28;20147;-74
2023/03/16 08:31:57;;;;;;;7.32;6.20;;;5.50;99.90;;;;;;5056675;28;20041;-73
2023/03/16 08:34:23;;;;;;;8.25;6.15;;;5.50;99.90;;;;;;5084751;28;20043;-74
2023/03/16 08:36:49;;;;;;;7.85;6.32;;;5.40;99.90;;;;;;5060276;28;20071;-74
2023/03/16 08:39:15;;;;;;;8.38;6.13;;;5.40;99.90;;;;;;5034601;28;20134;-74
2023/03/16 08:41:42;;;;;;;9.73;6.75;;;5.40;99.90;;;;;;5056648;28;20033;-74
2023/03/16 08:44:09;;;;;;;8.65;7.07;;;5.40;99.90;;;;;;5051754;28;20072;-73
2023/03/16 08:46:35;;;;;;;9.18;6.80;;;5.30;99.90;;;;;;5086213;28;20043;-74
2023/03/16 08:49:01;;;;;;;9.90;6.72;;;5.30;99.90;;;;;;5039418;28;20049;-73
2023/03/16 08:51:28;;;;;;;8.63;6.68;;;5.30;99.90;;;;;;5040893;28;20127;-72
2023/03/16 08:53:55;;;;;;;9.73;6.80;;;5.30;99.90;;;;;;5054470;28;20514;-73
2023/03/16 08:56:21;;;;;;;11.95;7.47;;;5.30;99.90;;;;;;5048519;28;20040;-74
2023/03/16 08:58:47;;;;;;;8.18;6.45;;;5.30;99.90;;;;;;5025946;28;20586;-73
2023/03/16 09:01:16;;;;;;;9.07;6.82;;;5.30;99.90;;;;;;5043918;28;20041;-74
2023/03/16 09:03:44;;;;;;;8.23;7.28;;;5.30;99.90;;;;;;5067067;28;20244;-74
2023/03/16 09:06:12;;;;;;;9.82;7.03;;;5.30;99.90;;;;;;5036799;28;20525;-74
2023/03/16 09:08:39;;;;;;;8.48;7.38;;;5.30;99.90;;;;;;5057367;28;20041;-72
2023/03/16 09:11:11;;;;;;;9.93;7.88;;;5.30;99.90;;;;;;5041004;28;20182;-74
2023/03/16 09:13:38;;;;;;;11.25;7.50;;;5.30;99.90;;;;;;5050342;28;20056;-74
2023/03/16 09:16:05;;;;;;;8.07;7.28;;;5.30;99.90;;;;;;5048520;28;20048;-74
2023/03/16 09:18:32;;;;;;;11.75;7.90;;;5.30;99.90;;;;;;5073233;28;20080;-74
2023/03/16 09:21:00;;;;;;;10.18;7.60;;;5.30;99.90;;;;;;5027155;28;20079;-74
2023/03/16 09:23:26;;;;;;;10.60;8.20;;;5.30;99.90;;;;;;5054585;28;20055;-75
2023/03/16 09:25:56;;;;;;;8.77;7.15;;;5.30;99.90;;;;;;5058442;28;20529;-74
2023/03/16 09:28:22;;;;;;;11.70;8.25;;;5.30;99.90;;;;;;5061187;28;20052;-75
2023/03/16 09:30:49;;;;;;;11.55;8.18;;;5.40;99.90;;;;;;5040805;28;20044;-74
2023/03/16 09:33:15;;;;;;;12.23;8.73;;;5.40;99.90;;;;;;5042573;28;20350;-74
2023/03/16 09:35:43;;;;;;;10.07;8.02;;;5.40;99.90;;;;;;5065197;28;20055;-73
2023/03/16 09:38:10;;;;;;;11.02;8.20;;;5.50;99.90;;;;;;5070255;28;20487;-74
2023/03/16 09:40:37;;;;;;;12.07;8.30;;;5.50;99.90;;;;;;5056554;28;20345;-75
2023/03/16 09:43:39;;;;;;;11.68;8.93;;;5.60;99.90;;;;;;5092375;27;20040;-72
2023/03/16 09:46:17;;;;;;;10.75;7.85;;;5.70;99.90;;;;;;5097669;28;20499;-73
2023/03/16 09:48:43;;;;;;;10.43;8.15;;;5.70;99.90;;;;;;5088912;27;20048;-75
2023/03/16 09:51:32;;;;;;;10.27;7.90;;;5.80;99.90;;;;;;5049916;28;20072;-73
2023/03/16 09:54:01;;;;;;;11.02;8.80;;;5.80;99.90;;;;;;5042539;28;20052;-74
2023/03/16 09:56:39;;;;;;;11.32;8.68;;;5.80;99.90;;;;;;5096191;27;20089;-73
2023/03/16 09:59:12;;;;;;;11.50;8.27;;;5.80;99.90;;;;;;5061423;28;20126;-73
2023/03/16 10:02:00;;;;;;;12.10;8.80;;;5.80;99.90;;;;;;5058627;28;20039;-74
2023/03/16 10:04:34;;;;;;;13.07;8.88;;;5.80;99.90;;;;;;5061215;28;20048;-74
2023/03/16 10:07:02;;;;;;;12.57;8.85;;;5.80;99.90;;;;;;5075166;28;20052;-73
2023/03/16 10:09:55;;;;;;;10.82;9.38;;;5.80;99.90;;;;;;5094651;28;20063;-74
2023/03/16 10:12:29;;;;;;;9.82;8.20;;;5.90;99.90;;;;;;5043062;28;20047;-73
2023/03/16 10:15:06;;;;;;;9.82;8.20;;;5.90;99.90;;;;;;5057389;28;20044;-72
2023/03/16 10:17:51;;;;;;;11.38;9.18;;;5.90;99.90;;;;;;5099864;27;20067;-74
2023/03/16 10:20:21;;;;;;;9.93;8.00;;;5.90;99.90;;;;;;5098837;28;20047;-74
2023/03/16 10:22:51;;;;;;;10.52;8.52;;;5.90;99.90;;;;;;5064959;28;20039;-74
2023/03/16 10:25:34;;;;;;;12.32;8.65;;;6.00;99.90;;;;;;5022379;28;20127;-73
2023/03/16 10:28:00;;;;;;;10.65;7.90;;;6.00;99.90;;;;;;5041472;28;20559;-73
2023/03/16 10:30:32;;;;;;;10.40;8.13;;;6.10;99.90;;;;;;5039080;28;20325;-72
2023/03/16 10:33:25;;;;;;;10.20;7.53;;;6.10;99.90;;;;;;5046076;28;20040;-73
2023/03/16 10:36:20;;;;;;;11.60;7.68;;;6.10;99.90;;;;;;5066491;28;20097;-73
2023/03/16 10:38:54;;;;;;;11.20;7.63;;;6.20;99.90;;;;;;5035961;28;20467;-73
2023/03/16 10:41:36;;;;;;;8.98;7.22;;;6.20;99.90;;;;;;5084919;28;20055;-73
2023/03/16 10:44:20;;;;;;;12.65;7.68;;;6.20;99.90;;;;;;5046205;28;20048;-73
2023/03/16 10:47:05;;;;;;;9.95;7.53;;;6.20;99.90;;;;;;5055849;28;20048;-71
2023/03/16 10:49:41;;;;;;;10.68;7.25;;;6.20;99.90;;;;;;5057498;28;20056;-72
2023/03/16 10:52:19;;;;;;;10.13;7.55;;;6.30;99.90;;;;;;5049327;28;20345;-72
2023/03/16 10:55:31;;;;;;;13.05;7.53;;;6.40;99.90;;;;;;5074373;28;20888;-73
2023/03/16 10:57:57;;;;;;;10.07;7.55;;;6.40;99.90;;;;;;5084672;27;20048;-73
2023/03/16 11:00:35;;;;;;;10.13;7.05;;;6.50;99.90;;;;;;5098400;28;20517;-74
2023/03/16 11:03:01;;;;;;;10.85;7.20;;;6.50;99.90;;;;;;5068644;28;20052;-73
2023/03/16 11:05:33;;;;;;;9.85;6.63;;;6.60;99.90;;;;;;5092731;27;20052;-73
2023/03/16 11:08:10;;;;;;;9.25;7.50;;;6.60;99.90;;;;;;5072764;28;20044;-73
2023/03/16 11:10:53;;;;;;;12.38;7.03;;;6.60;99.90;;;;;;5052452;28;20058;-73
2023/03/16 11:13:20;;;;;;;7.97;6.20;;;6.70;99.90;;;;;;5042412;28;20044;-73
2023/03/16 11:16:15;;;;;;;8.23;6.10;;;6.70;99.90;;;;;;5038414;28;20044;-72
2023/03/16 11:18:46;;;;;;;9.45;7.03;;;6.80;99.90;;;;;;5050320;28;20056;-74
2023/03/16 11:21:17;;;;;;;8.93;6.57;;;6.80;99.90;;;;;;5040066;28;20084;-74
2023/03/16 11:23:50;;;;;;;10.23;7.50;;;6.80;99.90;;;;;;5079198;28;20116;-73
2023/03/16 11:26:34;;;;;;;12.00;7.00;;;6.80;99.90;;;;;;5076745;28;20048;-72
2023/03/16 11:29:23;;;;;;;8.55;6.80;;;6.80;99.90;;;;;;5060941;28;20065;-75
2023/03/16 11:31:54;;;;;;;8.82;6.70;;;6.90;99.90;;;;;;5040272;28;20052;-72
2023/03/16 11:34:29;;;;;;;11.27;6.88;;;6.90;99.90;;;;;;5081055;28;20044;-75
2023/03/16 11:37:03;;;;;;;10.13;7.15;;;6.90;99.90;;;;;;5047647;28;20051;-73
2023/03/16 11:39:46;;;;;;;8.25;6.60;;;7.00;99.90;;;;;;5073139;28;20040;-73
2023/03/16 11:42:26;;;;;;;8.65;5.70;;;7.00;99.90;;;;;;5044824;28;20040;-73
2023/03/16 11:45:08;;;;;;;7.15;5.82;;;7.10;99.90;;;;;;5039793;28;20063;-73
2023/03/16 11:48:00;;;;;;;8.35;5.93;;;7.20;99.90;;;;;;5057491;28;20061;-73
2023/03/16 11:50:57;;;;;;;7.97;6.13;;;7.30;99.90;;;;;;5078899;28;20383;-74
2023/03/16 11:53:38;;;;;;;9.20;5.95;;;7.40;99.90;;;;;;5073567;28;20048;-74
2023/03/16 11:56:26;;;;;;;7.30;5.90;;;7.50;99.90;;;;;;5045480;28;20059;-73
2023/03/16 11:59:15;;;;;;;7.07;5.43;;;7.50;99.90;;;;;;5047010;28;20553;-75
2023/03/16 12:02:03;;;;;;;7.18;5.05;;;7.60;99.90;;;;;;5058490;28;20160;-74
2023/03/16 12:05:03;;;;;;;7.45;5.28;;;7.70;99.90;;;;;;5043077;28;20040;-74
2023/03/16 12:07:54;;;;;;;9.30;5.22;;;7.90;99.90;;;;;;5036947;28;20060;-73
2023/03/16 12:10:35;;;;;;;10.90;6.38;;;8.10;99.90;;;;;;5050730;28;20044;-73
2023/03/16 12:13:29;;;;;;;9.23;5.70;;;8.20;99.90;;;;;;5037318;28;20131;-74
2023/03/16 12:16:04;;;;;;;7.50;5.28;;;8.30;99.90;;;;;;5057403;28;20552;-73
2023/03/16 12:18:44;;;;;;;6.60;4.97;;;8.40;99.90;;;;;;5056737;28;20099;-74
2023/03/16 12:21:19;;;;;;;7.17;5.13;;;8.50;99.90;;;;;;5092393;28;20044;-73
2023/03/16 12:23:52;;;;;;;8.27;4.75;;;8.60;99.90;;;;;;5046500;28;20413;-72
2023/03/16 12:26:21;;;;;;;9.43;5.20;;;8.70;99.90;;;;;;5064463;28;20103;-73
2023/03/16 12:28:49;;;;;;;7.03;4.88;;;8.70;99.90;;;;;;5083243;28;20051;-74
2023/03/16 12:31:40;;;;;;;7.25;4.93;;;8.70;99.90;;;;;;5039867;28;20620;-73
2023/03/16 12:34:25;;;;;;;8.45;4.50;;;8.80;99.90;;;;;;5048078;28;20080;-74
2023/03/16 12:37:04;;;;;;;6.68;4.82;;;8.80;99.90;;;;;;5066293;28;20665;-73
2023/03/16 12:39:39;;;;;;;5.57;3.80;;;8.80;99.90;;;;;;5049573;28;20101;-74
2023/03/16 12:42:28;;;;;;;8.10;4.75;;;8.80;99.90;;;;;;5045774;28;20514;-73
2023/03/16 12:45:01;;;;;;;6.63;3.95;;;8.90;99.90;;;;;;5051223;28;20241;-74
2023/03/16 12:47:56;;;;;;;7.95;5.10;;;8.90;99.90;;;;;;5077860;28;20508;-74
2023/03/16 12:50:24;;;;;;;6.70;3.95;;;8.90;99.90;;;;;;5057927;28;20043;-75
2023/03/16 12:52:52;;;;;;;5.82;4.15;;;8.90;99.90;;;;;;5038763;28;20052;-74
2023/03/16 12:55:26;;;;;;;5.53;4.20;;;8.90;99.90;;;;;;5069466;28;20081;-75
2023/03/16 12:58:00;;;;;;;6.07;3.85;;;8.90;99.90;;;;;;5092840;28;20036;-75
2023/03/16 13:00:39;;;;;;;5.80;3.95;;;8.80;99.90;;;;;;5048247;28;20134;-74
2023/03/16 13:03:14;;;;;;;6.35;4.30;;;8.80;99.90;;;;;;5073793;28;20044;-74
2023/03/16 13:05:48;;;;;;;6.70;4.20;;;8.80;99.90;;;;;;5041111;28;20109;-74
2023/03/16 13:08:16;;;;;;;6.35;4.22;;;8.80;99.90;;;;;;5065718;28;20533;-73
2023/03/16 13:11:05;;;;;;;7.75;4.63;;;8.80;99.90;;;;;;5068161;28;20100;-73
2023/03/16 13:13:32;;;;;;;7.10;4.68;;;8.80;99.90;;;;;;5046304;28;20188;-73
2023/03/16 13:16:09;;;;;;;8.18;4.03;;;8.90;99.90;;;;;;5042112;28;20048;-73